TimeBST,TemperatureF,Dew PointF,Humidity,Sea Level PressureIn,VisibilityMPH,Wind Direction,Wind SpeedMPH,Gust SpeedMPH,PrecipitationIn,Events,Conditions,WindDirDegrees,DateUTC
12:20 AM,59.0,55.4,88,29.65,6.2,SW,15.0,-,N/A,,Mostly Cloudy,220,2013-07-02 23:20:00
12:50 AM,59,55,81,29.66,22,SSW,12.7,,,,Overcast,210,2013-07-02 23:50:00
12:50 AM,59.0,55.4,88,29.65,6.2,SSW,11.5,-,N/A,,Mostly Cloudy,210,2013-07-02 23:50:00
1:20 AM,59.0,55.4,88,29.65,6.2,SW,12.7,-,N/A,,Mostly Cloudy,220,2013-07-03 00:20:00
1:50 AM,59.0,55.4,88,29.65,6.2,SSW,11.5,-,N/A,,Overcast,210,2013-07-03 00:50:00
2:20 AM,59.0,55.4,88,29.62,6.2,SSW,10.4,-,N/A,,Overcast,210,2013-07-03 01:20:00
2:50 AM,59.0,57.2,94,29.62,6.2,SW,10.4,-,N/A,Rain,Light Rain,220,2013-07-03 01:50:00
3:20 AM,57.2,57.2,100,29.62,4.3,SW,6.9,-,N/A,Rain,Light Rain,220,2013-07-03 02:20:00
3:50 AM,58,56,93,29.63,19,SW,9.2,,,Rain,Rain,220,2013-07-03 02:50:00
3:50 AM,57.2,57.2,100,29.62,6.2,SW,6.9,-,N/A,Rain,Light Rain,220,2013-07-03 02:50:00
4:20 AM,57.2,57.2,100,29.62,6.2,SW,9.2,-,N/A,,Mostly Cloudy,220,2013-07-03 03:20:00
4:50 AM,59.0,57.2,94,29.62,6.2,SW,8.1,-,N/A,,Mostly Cloudy,230,2013-07-03 03:50:00
5:20 AM,59.0,57.2,94,29.62,6.2,WSW,9.2,-,N/A,,Mostly Cloudy,240,2013-07-03 04:20:00
5:50 AM,59.0,57.2,94,29.62,6.2,WSW,9.2,-,N/A,,Mostly Cloudy,240,2013-07-03 04:50:00
6:20 AM,59.0,59.0,100,29.65,6.2,SW,9.2,-,N/A,,Mostly Cloudy,220,2013-07-03 05:20:00
6:50 AM,60,58,89,29.65,22,SW,9.2,,,,,230,2013-07-03 05:50:00
6:50 AM,60.8,59.0,94,29.65,6.2,SW,9.2,-,N/A,,Mostly Cloudy,230,2013-07-03 05:50:00
7:20 AM,60.8,59.0,94,29.65,6.2,WSW,11.5,-,N/A,,Mostly Cloudy,240,2013-07-03 06:20:00
7:50 AM,60.8,57.2,88,29.68,6.2,West,13.8,-,N/A,,Mostly Cloudy,260,2013-07-03 06:50:00
8:20 AM,60.8,57.2,88,29.68,6.2,West,12.7,-,N/A,,Mostly Cloudy,270,2013-07-03 07:20:00
8:50 AM,60.8,57.2,88,29.71,6.2,West,11.5,-,N/A,,Mostly Cloudy,280,2013-07-03 07:50:00
9:20 AM,60.8,57.2,88,29.71,6.2,West,11.5,-,N/A,,Mostly Cloudy,270,2013-07-03 08:20:00
9:50 AM,62,56,76,29.73,19,West,10.4,,,,Overcast,260,2013-07-03 08:50:00
9:50 AM,60.8,57.2,88,29.71,6.2,West,11.5,-,N/A,,Mostly Cloudy,270,2013-07-03 08:50:00
10:20 AM,60.8,57.2,88,29.74,6.2,West,10.4,-,N/A,,Mostly Cloudy,270,2013-07-03 09:20:00
10:50 AM,62.6,57.2,82,29.74,6.2,West,9.2,-,N/A,,Mostly Cloudy,280,2013-07-03 09:50:00
11:20 AM,62.6,57.2,82,29.77,6.2,WNW,6.9,-,N/A,,Mostly Cloudy,290,2013-07-03 10:20:00
11:50 AM,62.6,57.2,82,29.77,6.2,West,11.5,-,N/A,,Mostly Cloudy,280,2013-07-03 10:50:00
12:20 PM,62.6,57.2,82,29.77,6.2,West,11.5,-,N/A,,Mostly Cloudy,270,2013-07-03 11:20:00
12:50 PM,65,56,64,29.80,19,West,10.4,,,,Mostly Cloudy,280,2013-07-03 11:50:00
12:50 PM,64.4,57.2,77,29.80,6.2,WNW,9.2,-,N/A,,Scattered Clouds,290,2013-07-03 11:50:00
1:20 PM,66.2,57.2,73,29.80,6.2,WNW,9.2,-,N/A,,Scattered Clouds,290,2013-07-03 12:20:00
1:50 PM,69.8,55.4,60,29.80,6.2,West,9.2,-,N/A,,Scattered Clouds,280,2013-07-03 12:50:00
2:20 PM,69.8,55.4,60,29.83,6.2,West,12.7,-,N/A,,Scattered Clouds,280,2013-07-03 13:20:00
2:50 PM,68.0,55.4,64,29.83,6.2,WNW,9.2,-,N/A,,Scattered Clouds,300,2013-07-03 13:50:00
3:20 PM,66.2,53.6,64,29.86,6.2,WNW,12.7,-,N/A,,Scattered Clouds,290,2013-07-03 14:20:00
3:50 PM,69,53,46,29.86,19,West,11.5,,,,Scattered Clouds,280,2013-07-03 14:50:00
3:50 PM,69.8,53.6,56,29.86,6.2,WNW,12.7,-,N/A,,Scattered Clouds,290,2013-07-03 14:50:00
4:20 PM,68.0,55.4,64,29.86,6.2,WNW,12.7,-,N/A,,Scattered Clouds,290,2013-07-03 15:20:00
4:50 PM,68.0,53.6,60,29.89,6.2,WNW,13.8,-,N/A,,Scattered Clouds,290,2013-07-03 15:50:00
5:20 PM,68.0,55.4,64,29.89,6.2,WNW,12.7,-,N/A,,Scattered Clouds,300,2013-07-03 16:20:00
5:50 PM,66.2,53.6,64,29.89,6.2,WNW,11.5,-,N/A,,Scattered Clouds,300,2013-07-03 16:50:00
6:20 PM,66.2,53.6,64,29.92,6.2,West,11.5,-,N/A,,Mostly Cloudy,280,2013-07-03 17:20:00
6:50 PM,66,52,51,29.93,19,West,11.5,,,,Mostly Cloudy,280,2013-07-03 17:50:00
6:50 PM,66.2,53.6,64,29.92,6.2,WNW,11.5,-,N/A,,Mostly Cloudy,290,2013-07-03 17:50:00
7:20 PM,66.2,53.6,64,29.95,6.2,WNW,8.1,-,N/A,,Mostly Cloudy,290,2013-07-03 18:20:00
7:50 PM,64.4,53.6,68,29.95,6.2,WNW,9.2,-,N/A,,Mostly Cloudy,290,2013-07-03 18:50:00
8:20 PM,64.4,55.4,73,29.95,6.2,West,6.9,-,N/A,,Mostly Cloudy,280,2013-07-03 19:20:00
8:50 PM,64.4,55.4,73,29.98,6.2,West,10.4,-,N/A,,Scattered Clouds,280,2013-07-03 19:50:00
9:20 PM,62.6,55.4,77,29.98,6.2,West,10.4,-,N/A,,Scattered Clouds,270,2013-07-03 20:20:00
9:50 PM,63,53,62,30.00,19,WSW,11.5,,,,Partly Cloudy,250,2013-07-03 20:50:00
9:50 PM,62.6,55.4,77,30.01,6.2,West,11.5,-,N/A,,Partly Cloudy,260,2013-07-03 20:50:00
10:20 PM,60.8,55.4,82,30.01,6.2,West,10.4,-,N/A,,Scattered Clouds,260,2013-07-03 21:20:00
10:50 PM,60.8,53.6,77,30.01,6.2,West,10.4,-,N/A,,Scattered Clouds,270,2013-07-03 21:50:00
11:20 PM,59.0,53.6,82,30.01,6.2,West,11.5,-,N/A,,Partly Cloudy,260,2013-07-03 22:20:00
11:50 PM,57.2,53.6,88,30.04,-9999.0,West,9.2,-,N/A,,Clear,280,2013-07-03 22:50:00